Time;durP1;ratioP1;P1;durP2;ratioP2;P2;SDS_P1;SDS_P2;PMS_P1;PMS_P2;Temp;Humidity;BMP_temperature;BMP_pressure;BME280_temperature;BME280_humidity;BME280_pressure;Samples;Min_cycle;Max_cycle;Signal;HPM_P1;HPM_P2
2023/01/04 00:00:21;;;;;;;20.37;13.17;;;;;;;11.73;55.09;102214.06;5055602;28;20376;-74
2023/01/04 00:02:47;;;;;;;16.67;12.45;;;;;;;11.73;54.83;102216.72;5054842;28;20794;-74
2023/01/04 00:05:12;;;;;;;21.67;13.93;;;;;;;11.73;54.77;102215.91;5054426;28;20459;-75
2023/01/04 00:07:37;;;;;;;16.40;12.13;;;;;;;11.67;54.99;102218.13;5056176;28;20859;-75
2023/01/04 00:10:03;;;;;;;17.43;12.53;;;;;;;11.54;55.47;102217.59;5069399;28;20456;-75
2023/01/04 00:12:29;;;;;;;16.70;12.43;;;;;;;11.52;55.36;102222.16;5071113;28;20462;-74
2023/01/04 00:14:54;;;;;;;17.60;11.43;;;;;;;11.46;55.59;102218.25;5086018;28;20407;-74
2023/01/04 00:17:21;;;;;;;19.17;11.90;;;;;;;11.43;55.88;102231.84;5070049;28;20427;-74
2023/01/04 00:19:47;;;;;;;16.57;11.87;;;;;;;11.50;56.00;102240.06;5070805;28;20397;-74
2023/01/04 00:22:12;;;;;;;16.38;11.75;;;;;;;11.49;55.68;102230.44;5070451;28;20493;-74
2023/01/04 00:24:38;;;;;;;16.57;11.40;;;;;;;11.36;56.07;102236.00;5069718;28;20890;-75
2023/01/04 00:27:04;;;;;;;14.33;10.73;;;;;;;11.26;56.21;102233.31;5069540;28;20454;-74
2023/01/04 00:29:30;;;;;;;17.08;11.98;;;;;;;11.26;56.35;102238.63;5068856;28;20859;-74
2023/01/04 00:31:56;;;;;;;16.03;11.17;;;;;;;11.19;56.80;102255.25;5070393;28;20376;-74
2023/01/04 00:34:21;;;;;;;16.87;11.53;;;;;;;11.27;56.39;102242.97;5069352;28;20467;-74
2023/01/04 00:36:47;;;;;;;18.17;11.93;;;;;;;11.42;56.31;102250.56;5070417;28;20430;-74
2023/01/04 00:39:14;;;;;;;17.03;11.67;;;;;;;11.33;56.29;102246.91;5069905;28;20464;-74
2023/01/04 00:41:47;;;;;;;15.73;11.10;;;;;;;11.19;56.83;102253.44;5069317;28;20560;-74
2023/01/04 00:44:14;;;;;;;16.23;10.90;;;;;;;11.14;56.75;102257.47;5069735;28;20809;-74
2023/01/04 00:46:40;;;;;;;15.75;11.40;;;;;;;11.01;57.72;102263.84;5070344;28;20401;-75
2023/01/04 00:49:08;;;;;;;17.00;11.45;;;;;;;10.98;58.12;102260.63;5069971;28;20371;-75
2023/01/04 00:51:35;;;;;;;17.77;11.50;;;;;;;10.99;57.85;102263.16;5070041;28;20693;-75
2023/01/04 00:54:02;;;;;;;17.50;11.20;;;;;;;10.96;58.12;102259.94;5069544;28;20395;-75
2023/01/04 00:56:29;;;;;;;17.02;11.50;;;;;;;10.99;57.96;102260.50;5069906;28;20894;-75
2023/01/04 00:58:59;;;;;;;15.18;10.98;;;;;;;11.00;58.17;102274.59;5070074;28;20413;-75
2023/01/04 01:01:27;;;;;;;19.88;11.40;;;;;;;10.94;58.18;102270.66;5070000;28;20382;-75
2023/01/04 01:03:54;;;;;;;19.42;12.38;;;;;;;10.93;58.40;102271.66;5068823;28;20371;-74
2023/01/04 01:06:20;;;;;;;19.27;11.85;;;;;;;10.84;58.54;102278.59;5070388;28;20363;-74
2023/01/04 01:08:46;;;;;;;16.75;10.45;;;;;;;10.78;58.77;102273.81;5069651;28;20371;-75
2023/01/04 01:11:12;;;;;;;19.23;12.98;;;;;;;10.83;58.61;102276.91;5069975;28;20736;-75
2023/01/04 01:13:38;;;;;;;16.25;11.30;;;;;;;10.97;58.34;102277.53;5069805;28;20402;-74
2023/01/04 01:16:13;;;;;;;18.13;11.65;;;;;;;10.81;58.60;102286.81;5069188;28;20407;-75
2023/01/04 01:18:41;;;;;;;17.27;11.18;;;;;;;10.77;58.95;102290.72;5070468;28;20377;-75
2023/01/04 01:21:12;;;;;;;16.05;10.68;;;;;;;10.73;59.18;102286.63;5071559;28;20731;-75
2023/01/04 01:23:38;;;;;;;17.10;11.47;;;;;;;10.73;59.48;102277.84;5073492;28;20396;-75
2023/01/04 01:26:06;;;;;;;15.33;10.20;;;;;;;10.69;59.56;102282.56;5073259;28;20470;-75
2023/01/04 01:28:33;;;;;;;15.32;10.75;;;;;;;10.69;59.79;102279.91;5072120;28;20490;-75
2023/01/04 01:31:03;;;;;;;17.20;11.13;;;;;;;10.67;59.87;102271.25;5073257;28;20383;-75
2023/01/04 01:33:28;;;;;;;15.40;11.00;;;;;;;10.70;59.46;102274.47;5072862;28;20441;-75
2023/01/04 01:35:58;;;;;;;16.80;12.00;;;;;;;10.87;59.01;102261.56;5072609;28;20395;-74
2023/01/04 01:38:24;;;;;;;17.25;11.52;;;;;;;10.88;58.98;102280.00;5072668;28;20480;-74
2023/01/04 01:40:49;;;;;;;15.30;9.43;;;;;;;10.77;59.25;102264.19;5071798;28;20886;-74
2023/01/04 01:43:17;;;;;;;18.73;11.67;;;;;;;10.97;58.90;102266.94;5073217;28;20367;-75
2023/01/04 01:45:45;;;;;;;17.27;11.90;;;;;;;11.10;58.17;102264.88;5072926;28;20368;-74
2023/01/04 01:48:18;;;;;;;14.07;9.68;;;;;;;10.93;58.81;102263.69;5072642;28;20459;-74
2023/01/04 01:50:52;;;;;;;18.23;11.23;;;;;;;11.02;58.62;102260.25;5071395;28;20381;-74
2023/01/04 01:53:19;;;;;;;16.38;10.88;;;;;;;11.04;58.32;102260.09;5072888;28;20393;-75
2023/01/04 01:55:47;;;;;;;15.95;10.75;;;;;;;11.09;58.33;102260.50;5072583;28;20402;-75
2023/01/04 01:58:20;;;;;;;16.15;10.07;;;;;;;11.00;58.60;102254.22;5072951;28;20618;-75
2023/01/04 02:00:46;;;;;;;17.73;11.05;;;;;;;10.95;58.83;102258.25;5072427;28;20473;-74
2023/01/04 02:03:20;;;;;;;15.50;11.00;;;;;;;10.98;58.58;102260.63;5072825;28;20466;-75
2023/01/04 02:05:54;;;;;;;15.50;10.95;;;;;;;11.06;58.21;102260.81;5072234;28;20863;-74
2023/01/04 02:08:22;;;;;;;16.23;11.23;;;;;;;11.11;58.03;102255.94;5072401;28;20847;-75
2023/01/04 02:10:48;;;;;;;18.17;11.23;;;;;;;11.17;58.07;102259.88;5072903;28;20374;-74
2023/01/04 02:13:18;;;;;;;16.58;11.20;;;;;;;11.09;58.18;102253.41;5072872;28;20381;-75
2023/01/04 02:16:04;;;;;;;17.85;11.30;;;;;;;11.11;58.15;102253.28;5071254;28;20455;-75
2023/01/04 02:18:37;;;;;;;19.83;11.60;;;;;;;10.99;58.33;102249.88;5058184;28;20890;-75
2023/01/04 02:21:18;;;;;;;18.42;11.63;;;;;;;11.09;58.28;102255.22;5071808;28;20436;-74
2023/01/04 02:24:02;;;;;;;16.67;11.70;;;;;;;11.24;57.77;102263.66;5072303;28;20421;-75
2023/01/04 02:26:56;;;;;;;17.48;11.93;;;;;;;11.33;57.71;102264.66;5072111;28;20375;-74
2023/01/04 02:29:49;;;;;;;18.63;12.20;;;;;;;11.33;57.49;102262.81;5043847;28;20415;-75
2023/01/04 02:32:33;;;;;;;17.87;12.27;;;;;;;11.46;57.11;102267.88;5072580;28;20367;-75
2023/01/04 02:35:34;;;;;;;18.43;12.87;;;;;;;11.37;57.30;102258.91;5070897;28;20378;-76
2023/01/04 02:38:24;;;;;;;17.10;11.52;;;;;;;11.33;57.29;102273.44;5071246;28;20744;-75
2023/01/04 02:41:20;;;;;;;19.80;11.50;;;;;;;11.30;57.42;102271.06;5071247;28;20486;-75
2023/01/04 02:46:47;;;;;;;18.27;12.40;;;;;;;11.55;56.80;102271.53;5071624;28;20379;-75
2023/01/04 02:51:57;;;;;;;17.77;11.73;;;;;;;11.50;56.87;102277.25;5071958;28;20451;-75
2023/01/04 02:54:31;;;;;;;19.07;11.57;;;;;;;11.42;57.18;102287.72;5071655;28;20379;-75
2023/01/04 02:57:19;;;;;;;18.05;11.50;;;;;;;11.39;57.04;102286.16;5071406;28;20391;-74
2023/01/04 02:59:50;;;;;;;17.77;11.68;;;;;;;11.39;57.08;102277.38;5069909;28;20755;-74
2023/01/04 03:08:36;;;;;;;18.33;12.20;;;;;;;11.37;57.02;102290.78;5071584;28;20858;-76
2023/01/04 03:12:30;;;;;;;18.80;11.68;;;;;;;11.42;56.74;102293.03;5070533;28;20375;-75
2023/01/04 03:14:17;;;;;;;19.63;11.68;;;;;;;11.42;56.76;102298.34;5070953;28;20839;-75
2023/01/04 03:16:46;;;;;;;18.90;13.05;;;;;;;11.32;56.86;102297.47;5070905;28;20505;-74
2023/01/04 03:19:13;;;;;;;18.97;12.00;;;;;;;11.18;57.18;102301.34;5069760;28;20748;-75
2023/01/04 03:21:43;;;;;;;18.98;12.80;;;;;;;11.21;57.19;102299.25;5071103;28;20444;-75
2023/01/04 03:36:07;;;;;;;19.10;13.60;;;;;;;11.08;57.23;102309.28;5070697;28;20902;-75
2023/01/04 03:51:04;;;;;;;15.95;10.05;;;;;;;10.97;56.76;102307.56;5070586;28;20869;-75
2023/01/04 03:53:35;;;;;;;15.07;10.25;;;;;;;10.97;56.59;102304.06;5070345;28;20759;-75
2023/01/04 03:56:02;;;;;;;15.43;10.10;;;;;;;11.02;56.38;102321.28;5070214;28;20464;-74
2023/01/04 03:58:27;;;;;;;20.90;13.52;;;;;;;10.98;55.97;102316.34;5070505;28;20378;-74
2023/01/04 04:00:53;;;;;;;17.93;11.93;;;;;;;10.94;55.98;102322.91;5070211;28;20382;-75
2023/01/04 04:03:18;;;;;;;15.63;10.23;;;;;;;10.92;56.10;102314.25;5070972;28;20438;-74
2023/01/04 04:08:29;;;;;;;15.60;10.38;;;;;;;10.95;55.95;102320.13;5071157;28;20397;-75
2023/01/04 04:13:47;;;;;;;17.20;12.10;;;;;;;10.82;55.82;102325.66;5071145;28;20457;-75
2023/01/04 04:16:13;;;;;;;14.23;10.27;;;;;;;10.77;55.56;102325.19;5070150;28;20571;-75
2023/01/04 04:18:38;;;;;;;16.33;10.10;;;;;;;10.71;55.87;102323.06;5070188;28;20461;-74
2023/01/04 04:21:04;;;;;;;14.68;9.30;;;;;;;10.67;56.18;102321.66;5070745;28;20375;-74
2023/01/04 04:23:29;;;;;;;16.17;9.23;;;;;;;10.59;56.25;102324.97;5070622;28;20565;-74
2023/01/04 04:25:55;;;;;;;14.33;8.37;;;;;;;10.47;56.24;102329.47;5070776;28;20367;-75
2023/01/04 04:28:20;;;;;;;13.43;7.82;;;;;;;10.23;57.09;102336.81;5070925;28;20402;-74
2023/01/04 04:30:48;;;;;;;14.07;8.60;;;;;;;10.22;57.20;102333.31;5070292;28;20434;-74
2023/01/04 04:33:14;;;;;;;13.60;8.47;;;;;;;10.10;57.29;102337.84;5069330;28;20411;-74
2023/01/04 04:35:39;;;;;;;12.20;8.07;;;;;;;10.10;57.32;102342.28;5070144;28;20517;-74
2023/01/04 04:38:05;;;;;;;13.48;8.00;;;;;;;10.06;57.56;102340.84;5070096;28;20735;-75
2023/01/04 04:43:14;;;;;;;14.40;8.77;;;;;;;10.21;57.03;102347.56;5070348;28;20465;-74
2023/01/04 04:45:39;;;;;;;14.40;8.60;;;;;;;10.26;57.08;102347.16;5069689;28;20382;-74
2023/01/04 04:48:05;;;;;;;12.85;8.07;;;;;;;10.28;56.83;102342.56;5069354;28;20394;-75
2023/01/04 04:50:30;;;;;;;13.97;8.53;;;;;;;10.24;57.27;102347.28;5070071;28;20781;-74
2023/01/04 04:52:56;;;;;;;13.57;8.60;;;;;;;10.26;57.16;102345.38;5070715;28;20382;-75
2023/01/04 04:55:21;;;;;;;14.90;8.20;;;;;;;10.07;57.58;102342.56;5073760;28;20774;-74
2023/01/04 04:57:47;;;;;;;13.90;8.57;;;;;;;10.06;57.35;102357.59;5072305;28;20413;-74
2023/01/04 05:00:13;;;;;;;17.95;10.20;;;;;;;10.08;57.49;102358.31;5073406;28;20386;-74
2023/01/04 05:02:38;;;;;;;12.90;8.38;;;;;;;10.02;57.98;102356.16;5072287;28;20416;-74
2023/01/04 05:05:04;;;;;;;14.85;9.02;;;;;;;10.06;57.89;102360.22;5073757;28;20456;-74
2023/01/04 05:07:30;;;;;;;14.55;8.13;;;;;;;9.97;57.82;102362.81;5070672;28;20382;-74
2023/01/04 05:09:55;;;;;;;13.13;8.10;;;;;;;9.90;58.63;102363.31;5073293;28;20370;-75
2023/01/04 05:15:05;;;;;;;15.13;8.38;;;;;;;10.00;58.14;102367.88;5071977;28;20429;-74
2023/01/04 05:17:30;;;;;;;14.57;9.48;;;;;;;9.98;58.53;102369.81;5073273;28;20414;-74
2023/01/04 05:19:57;;;;;;;14.38;9.38;;;;;;;10.06;58.48;102370.00;5073000;28;20793;-74
2023/01/04 05:22:22;;;;;;;14.73;8.40;;;;;;;10.08;58.06;102374.22;5072619;28;20480;-74
2023/01/04 05:24:48;;;;;;;14.95;9.15;;;;;;;10.07;58.26;102380.47;5071977;28;20410;-74
2023/01/04 05:27:13;;;;;;;15.53;10.50;;;;;;;10.22;57.67;102378.38;5072657;28;20370;-73
2023/01/04 05:32:22;;;;;;;18.42;10.75;;;;;;;10.35;57.40;102380.03;5072638;28;20740;-74
2023/01/04 05:34:48;;;;;;;17.00;10.57;;;;;;;10.30;57.68;102372.44;5072155;28;20382;-74
2023/01/04 05:37:13;;;;;;;16.00;10.80;;;;;;;10.33;57.70;102375.72;5072028;28;20418;-75
2023/01/04 05:39:39;;;;;;;15.10;9.53;;;;;;;10.39;57.68;102373.50;5072351;28;20387;-74
2023/01/04 05:44:48;;;;;;;15.38;9.82;;;;;;;10.43;57.23;102386.38;5071987;28;20394;-74
2023/01/04 05:47:13;;;;;;;15.13;10.10;;;;;;;10.35;57.65;102388.81;5071070;28;20375;-75
2023/01/04 05:49:39;;;;;;;15.15;10.23;;;;;;;10.28;57.89;102393.78;5071665;28;20454;-75
2023/01/04 05:52:04;;;;;;;13.27;8.53;;;;;;;10.28;58.02;102395.56;5072287;28;20394;-75
2023/01/04 05:54:30;;;;;;;16.93;10.53;;;;;;;10.38;57.91;102393.88;5072252;28;20477;-75
2023/01/04 05:56:55;;;;;;;22.30;15.55;;;;;;;10.35;57.91;102388.00;5071271;28;20410;-75
2023/01/04 05:59:21;;;;;;;15.53;9.30;;;;;;;10.35;57.87;102409.19;5072340;28;20375;-74
2023/01/04 06:01:46;;;;;;;12.93;8.55;;;;;;;10.19;58.44;102399.84;5072628;28;20520;-74
2023/01/04 06:04:12;;;;;;;13.53;8.83;;;;;;;10.27;58.20;102407.16;5071565;28;20431;-74
2023/01/04 06:06:37;;;;;;;13.43;8.50;;;;;;;10.21;58.60;102402.34;5072872;28;20379;-75
2023/01/04 06:09:03;;;;;;;15.93;9.18;;;;;;;10.23;58.43;102401.25;5072598;28;20859;-74
2023/01/04 06:11:28;;;;;;;13.77;8.47;;;;;;;10.19;58.06;102394.53;5072425;28;20525;-74
2023/01/04 06:13:54;;;;;;;16.23;9.73;;;;;;;10.18;58.36;102398.16;5072769;28;20705;-74
2023/01/04 06:16:19;;;;;;;15.75;9.70;;;;;;;10.20;58.19;102401.50;5072446;28;20502;-74
2023/01/04 06:18:44;;;;;;;14.90;9.40;;;;;;;10.16;58.41;102400.09;5072565;28;20383;-76
2023/01/04 06:21:10;;;;;;;17.60;9.52;;;;;;;10.26;58.11;102410.75;5072595;28;20835;-74
2023/01/04 06:23:35;;;;;;;21.30;9.97;;;;;;;10.22;58.18;102415.47;5071429;28;20855;-74
2023/01/04 06:26:01;;;;;;;14.93;9.53;;;;;;;10.22;58.71;102404.88;5072133;28;20371;-74
2023/01/04 06:28:27;;;;;;;15.02;9.45;;;;;;;10.16;58.49;102407.19;5072251;28;20432;-75
2023/01/04 06:30:53;;;;;;;15.25;9.10;;;;;;;10.26;57.95;102406.31;5071086;28;20390;-75
2023/01/04 06:33:18;;;;;;;12.37;8.57;;;;;;;10.16;58.10;102410.69;5071973;28;20387;-74
2023/01/04 06:35:44;;;;;;;14.70;9.13;;;;;;;10.18;58.37;102410.56;5070891;28;20525;-75
2023/01/04 06:38:09;;;;;;;16.37;9.60;;;;;;;10.25;58.16;102414.41;5072364;28;20371;-74
2023/01/04 06:40:35;;;;;;;14.67;9.03;;;;;;;10.35;57.66;102419.81;5071617;28;20533;-74
2023/01/04 06:43:00;;;;;;;13.95;9.50;;;;;;;10.40;57.48;102421.09;5071645;28;20387;-75
2023/01/04 06:45:26;;;;;;;16.90;9.97;;;;;;;10.38;57.39;102423.03;5064627;28;20726;-75
2023/01/04 06:47:51;;;;;;;15.87;10.60;;;;;;;10.52;57.55;102429.88;5072352;28;20402;-75
2023/01/04 06:50:17;;;;;;;18.70;11.20;;;;;;;10.44;57.56;102435.81;5063689;28;20377;-73
2023/01/04 06:52:42;;;;;;;15.97;10.13;;;;;;;10.38;57.90;102441.59;5067966;28;20368;-75
2023/01/04 06:55:08;;;;;;;17.07;11.40;;;;;;;10.35;58.07;102452.44;5084347;28;20488;-74
2023/01/04 06:57:34;;;;;;;14.77;9.68;;;;;;;10.39;57.39;102447.72;5073616;28;20418;-74
2023/01/04 06:59:59;;;;;;;14.15;9.10;;;;;;;10.45;57.38;102457.84;5073352;28;20383;-76
2023/01/04 07:02:25;;;;;;;12.43;8.07;;;;;;;10.39;57.52;102453.03;5072203;28;20378;-74
2023/01/04 07:04:51;;;;;;;13.00;9.20;;;;;;;10.41;57.71;102459.91;5072655;28;20424;-77
2023/01/04 07:07:16;;;;;;;13.37;8.77;;;;;;;10.35;57.67;102465.69;5071193;28;20778;-74
2023/01/04 07:09:42;;;;;;;14.40;8.10;;;;;;;10.32;57.82;102466.81;5070437;28;20394;-74
2023/01/04 07:12:07;;;;;;;13.07;7.73;;;;;;;10.47;57.82;102482.44;5071302;28;20385;-75
2023/01/04 07:14:32;;;;;;;10.10;6.63;;;;;;;10.42;58.01;102472.19;5071739;28;20375;-76
2023/01/04 07:16:58;;;;;;;14.20;8.55;;;;;;;10.67;57.63;102480.78;5070857;28;20407;-76
2023/01/04 07:19:24;;;;;;;11.43;7.37;;;;;;;10.69;56.98;102479.66;5072936;28;20466;-74
2023/01/04 07:21:49;;;;;;;11.45;7.00;;;;;;;10.72;57.19;102483.91;5066802;28;20448;-75
2023/01/04 07:24:15;;;;;;;12.18;7.35;;;;;;;10.65;57.33;102485.38;5061531;28;20845;-73
2023/01/04 07:26:40;;;;;;;10.43;7.07;;;;;;;10.68;57.30;102493.91;5071241;28;20372;-75
2023/01/04 07:29:15;;;;;;;13.53;7.07;;;;;;;10.63;56.97;102496.09;5071211;28;20457;-77
2023/01/04 07:31:49;;;;;;;9.75;6.55;;;;;;;10.74;56.82;102487.25;5067662;28;20373;-75
2023/01/04 07:34:17;;;;;;;10.52;7.80;;;;;;;10.90;56.55;102497.44;5063518;28;20371;-76
2023/01/04 07:36:43;;;;;;;10.73;7.13;;;;;;;10.94;56.52;102484.75;5070553;28;20402;-76
2023/01/04 07:39:10;;;;;;;10.20;7.22;;;;;;;11.01;56.45;102489.41;5069741;28;20437;-75
2023/01/04 07:41:37;;;;;;;12.35;8.18;;;;;;;11.14;56.06;102493.69;5070560;28;20380;-75
2023/01/04 07:44:03;;;;;;;12.10;8.40;;;;;;;11.16;55.97;102489.91;5070270;28;20374;-77
2023/01/04 07:46:28;;;;;;;10.75;7.75;;;;;;;11.21;55.95;102486.88;5070960;28;20383;-76
2023/01/04 07:48:54;;;;;;;14.47;8.40;;;;;;;11.27;55.65;102486.34;5070839;28;20858;-76
2023/01/04 07:51:19;;;;;;;11.97;9.33;;;;;;;11.39;55.51;102493.28;5051292;28;20829;-75
2023/01/04 07:53:45;;;;;;;15.27;10.23;;;;;;;11.51;55.37;102493.22;5063390;28;20386;-75
2023/01/04 07:56:10;;;;;;;13.20;8.80;;;;;;;11.57;55.16;102490.00;5069294;28;20511;-75
2023/01/04 07:58:38;;;;;;;14.50;7.85;;;;;;;11.57;55.14;102492.66;5070518;28;20382;-75
2023/01/04 08:01:13;;;;;;;12.20;8.57;;;;;;;11.57;55.29;102500.63;5057606;28;20363;-74
2023/01/04 08:03:39;;;;;;;13.20;8.63;;;;;;;11.57;55.38;102498.81;5071447;28;20425;-74
2023/01/04 08:06:08;;;;;;;15.82;10.00;;;;;;;11.54;55.64;102492.94;5068800;28;20444;-75
2023/01/04 08:08:33;;;;;;;14.32;8.98;;;;;;;11.69;55.59;102490.78;5068573;28;20936;-77
2023/01/04 08:11:07;;;;;;;15.00;8.60;;;;;;;11.79;55.02;102500.47;5068886;28;20379;-76
2023/01/04 08:13:33;;;;;;;15.35;9.20;;;;;;;11.80;55.10;102501.31;5069988;28;20406;-75
2023/01/04 08:15:58;;;;;;;19.00;10.33;;;;;;;11.79;55.32;102503.13;5069184;28;20839;-75
2023/01/04 08:18:24;;;;;;;14.75;9.30;;;;;;;11.90;54.59;102511.94;5068812;28;20391;-75
2023/01/04 08:20:49;;;;;;;12.57;8.80;;;;;;;11.95;54.85;102509.78;5073106;28;20739;-75
2023/01/04 08:23:15;;;;;;;14.80;8.10;;;;;;;11.93;54.92;102511.72;5071842;28;20376;-74
2023/01/04 08:25:41;;;;;;;12.73;7.97;;;;;;;12.01;54.74;102506.56;5077431;28;20387;-75
2023/01/04 08:28:06;;;;;;;12.53;8.27;;;;;;;11.96;54.75;102506.97;5080354;28;20445;-75
2023/01/04 08:30:32;;;;;;;16.75;9.40;;;;;;;12.07;54.88;102514.00;5074800;28;20379;-76
2023/01/04 08:32:58;;;;;;;13.00;8.53;;;;;;;12.16;54.59;102512.38;5064797;28;20448;-76
2023/01/04 08:35:23;;;;;;;10.73;8.00;;;;;;;12.14;54.59;102511.66;5074255;28;20381;-75
2023/01/04 08:37:49;;;;;;;11.05;7.65;;;;;;;11.94;54.83;102514.25;5062662;28;20408;-75
2023/01/04 08:40:14;;;;;;;13.00;8.00;;;;;;;12.04;54.92;102515.09;4974727;28;20507;-73
2023/01/04 08:42:40;;;;;;;11.30;7.33;;;;;;;12.15;54.55;102514.16;5050448;28;20453;-75
2023/01/04 08:45:06;;;;;;;9.88;6.43;;;;;;;12.07;54.47;102516.66;5044554;28;20390;-76
2023/01/04 08:47:32;;;;;;;12.40;7.38;;;;;;;12.10;54.60;102521.72;5050320;28;20380;-76
2023/01/04 08:49:58;;;;;;;10.38;6.55;;;;;;;12.00;54.61;102518.19;5049298;28;20373;-75
2023/01/04 08:52:24;;;;;;;11.88;7.78;;;;;;;12.07;54.71;102513.19;5050229;28;20453;-76
2023/01/04 08:54:50;;;;;;;9.82;6.80;;;;;;;12.28;53.97;102526.38;5050648;28;20384;-75
2023/01/04 08:57:16;;;;;;;10.23;6.30;;;;;;;12.13;54.47;102516.13;5049258;28;20483;-75
2023/01/04 08:59:42;;;;;;;11.95;7.43;;;;;;;12.32;54.33;102519.81;5051262;28;20442;-75
2023/01/04 09:02:28;;;;;;;11.32;7.80;;;;;;;12.40;53.96;102509.31;5050170;28;20475;-75
2023/01/04 09:04:58;;;;;;;11.43;7.40;;;;;;;12.64;53.77;102519.59;5049867;28;20391;-75
2023/01/04 09:07:31;;;;;;;11.70;7.63;;;;;;;12.77;53.63;102517.47;5050419;28;20387;-74
2023/01/04 09:09:56;;;;;;;10.85;7.53;;;;;;;12.60;53.76;102520.81;5050763;28;20925;-75
2023/01/04 09:12:23;;;;;;;10.75;7.93;;;;;;;12.66;53.53;102522.06;5051713;28;20452;-76
2023/01/04 09:14:48;;;;;;;11.55;7.90;;;;;;;12.82;53.12;102530.38;5051210;28;20412;-74
2023/01/04 09:17:14;;;;;;;11.43;6.70;;;;;;;12.49;53.48;102529.75;5050916;28;20396;-77
2023/01/04 09:19:39;;;;;;;12.13;8.73;;;;;;;12.69;53.07;102527.97;5049936;28;20397;-75
2023/01/04 09:22:05;;;;;;;12.07;8.43;;;;;;;12.84;52.77;102527.53;5050343;28;20388;-75
2023/01/04 09:24:34;;;;;;;11.55;7.03;;;;;;;12.80;52.43;102525.19;5050042;28;20458;-76
2023/01/04 09:26:59;;;;;;;15.47;9.00;;;;;;;12.59;53.12;102516.50;5062489;28;20380;-76
2023/01/04 09:29:26;;;;;;;11.00;7.37;;;;;;;12.54;53.03;102514.22;5068773;28;20385;-76
2023/01/04 09:31:53;;;;;;;12.70;8.65;;;;;;;12.64;53.03;102514.25;5066797;28;20467;-75
2023/01/04 09:34:18;;;;;;;9.85;7.18;;;;;;;12.64;53.01;102503.63;5062892;28;20400;-76
2023/01/04 09:36:45;;;;;;;13.57;9.47;;;;;;;12.81;52.45;102512.72;5054338;28;20741;-75
2023/01/04 09:39:11;;;;;;;12.10;8.97;;;;;;;13.04;52.05;102513.25;5050373;28;20865;-77
2023/01/04 09:41:44;;;;;;;12.87;9.37;;;;;;;13.10;51.51;102510.00;5053453;28;20387;-76
2023/01/04 09:44:32;;;;;;;15.50;9.90;;;;;;;13.16;51.66;102505.94;5053890;28;20387;-78
2023/01/04 09:47:07;;;;;;;12.40;9.30;;;;;;;13.33;51.24;102510.56;5053298;28;20833;-75
2023/01/04 09:50:03;;;;;;;12.20;8.45;;;;;;;13.32;50.67;102518.69;5053603;28;20734;-75
2023/01/04 09:52:47;;;;;;;11.73;8.52;;;;;;;13.36;50.92;102507.63;5053311;28;20908;-76
2023/01/04 09:55:30;;;;;;;13.10;8.48;;;;;;;13.38;50.91;102508.31;5052872;28;20460;-75
2023/01/04 09:58:02;;;;;;;11.48;8.68;;;;;;;13.49;50.70;102504.63;5053306;28;20919;-75
2023/01/04 10:00:33;;;;;;;13.02;9.38;;;;;;;13.52;50.27;102507.03;5053610;28;20372;-75
2023/01/04 10:03:14;;;;;;;12.65;9.10;;;;;;;13.55;50.29;102501.38;5053166;28;20373;-76
2023/01/04 10:05:40;;;;;;;13.88;9.40;;;;;;;13.60;50.48;102500.97;5053373;28;20467;-76
2023/01/04 10:08:14;;;;;;;12.40;8.05;;;;;;;13.70;49.94;102501.75;5052995;28;20442;-76
2023/01/04 10:10:47;;;;;;;13.07;8.25;;;;;;;13.32;50.74;102503.53;5053508;28;20427;-76
2023/01/04 10:13:35;;;;;;;14.70;9.20;;;;;;;13.41;50.91;102507.16;5052871;28;20689;-75
2023/01/04 10:16:19;;;;;;;11.10;8.00;;;;;;;13.51;50.64;102505.31;5052356;28;20430;-75
2023/01/04 10:18:56;;;;;;;11.55;8.00;;;;;;;13.56;50.42;102502.25;5053629;28;20377;-75
2023/01/04 10:21:37;;;;;;;10.10;7.53;;;;;;;13.64;50.40;102498.84;5053936;28;20888;-76
2023/01/04 10:24:09;;;;;;;11.45;7.97;;;;;;;13.65;50.38;102490.69;5052820;28;20757;-75
2023/01/04 10:26:46;;;;;;;11.73;7.97;;;;;;;13.61;50.37;102496.47;5053392;28;20408;-75
2023/01/04 10:29:43;;;;;;;13.18;9.35;;;;;;;13.68;49.88;102498.38;5053059;28;20763;-75
2023/01/04 10:32:28;;;;;;;12.48;8.60;;;;;;;13.73;50.16;102493.44;5052907;28;20836;-75
2023/01/04 10:34:53;;;;;;;11.27;8.10;;;;;;;13.58;49.93;102502.94;5052471;28;20381;-78
2023/01/04 10:37:34;;;;;;;14.60;10.17;;;;;;;13.58;50.31;102508.25;5052698;28;20573;-76
2023/01/04 10:40:00;;;;;;;16.85;10.68;;;;;;;13.56;50.52;102500.41;5052280;28;20380;-76
2023/01/04 10:42:28;;;;;;;14.38;8.57;;;;;;;13.50;50.51;102492.16;5052655;28;20469;-76
2023/01/04 10:45:00;;;;;;;13.73;9.13;;;;;;;13.57;50.11;102502.06;5052645;28;20377;-77
2023/01/04 10:47:56;;;;;;;14.63;9.60;;;;;;;13.64;50.27;102498.84;5051304;28;20437;-75
2023/01/04 10:50:30;;;;;;;14.50;9.10;;;;;;;13.54;50.34;102496.19;5043718;28;20810;-75
2023/01/04 10:53:02;;;;;;;14.02;9.18;;;;;;;13.42;50.72;102492.88;5052033;28;20730;-76
2023/01/04 10:55:47;;;;;;;13.43;8.90;;;;;;;13.60;50.42;102492.13;5052669;28;20373;-76
2023/01/04 10:58:25;;;;;;;14.57;10.38;;;;;;;13.77;49.84;102489.53;5052276;28;20412;-76
2023/01/04 11:00:59;;;;;;;13.45;9.05;;;;;;;13.65;49.90;102482.72;5053211;28;21308;-75
2023/01/04 11:03:54;;;;;;;20.40;11.43;;;;;;;13.87;49.77;102477.97;5052232;28;20465;-77
2023/01/04 11:06:43;;;;;;;16.10;10.32;;;;;;;13.98;49.88;102479.59;5050431;28;20483;-75
2023/01/04 11:09:17;;;;;;;13.73;9.30;;;;;;;13.96;49.34;102477.91;5052698;28;20770;-76
2023/01/04 11:11:45;;;;;;;14.38;10.20;;;;;;;14.06;49.25;102472.53;5051839;28;20799;-76
2023/01/04 11:14:11;;;;;;;16.73;10.73;;;;;;;14.06;49.16;102480.53;5052374;28;20378;-77
2023/01/04 11:16:43;;;;;;;13.32;9.75;;;;;;;13.89;49.44;102470.66;5051607;28;20482;-75
2023/01/04 11:19:09;;;;;;;13.43;8.70;;;;;;;13.83;49.34;102473.91;5051824;28;20377;-77
2023/01/04 11:21:42;;;;;;;14.70;9.80;;;;;;;14.01;49.17;102480.16;5052638;28;20389;-76
2023/01/04 11:24:10;;;;;;;14.15;9.43;;;;;;;14.11;48.97;102477.41;5051592;28;20412;-75
2023/01/04 11:26:40;;;;;;;13.82;10.00;;;;;;;14.18;48.92;102477.66;5053300;28;20372;-74
2023/01/04 11:29:24;;;;;;;13.07;8.43;;;;;;;14.08;48.82;102478.56;5052062;28;20730;-76
2023/01/04 11:32:00;;;;;;;12.40;8.25;;;;;;;14.00;49.32;102477.63;5051731;28;20399;-75
2023/01/04 11:34:53;;;;;;;14.18;9.85;;;;;;;14.11;48.88;102470.25;5052234;28;20377;-76
2023/01/04 11:37:32;;;;;;;12.80;8.38;;;;;;;14.00;48.74;102474.97;5051585;28;20416;-74
2023/01/04 11:40:17;;;;;;;13.45;9.10;;;;;;;14.01;49.00;102466.81;5052205;28;20426;-77
2023/01/04 11:42:49;;;;;;;10.95;8.18;;;;;;;14.03;48.67;102464.00;5052800;28;20377;-77
2023/01/04 11:45:19;;;;;;;12.93;8.98;;;;;;;14.06;48.49;102466.34;5050626;28;20417;-76
2023/01/04 11:47:56;;;;;;;12.88;9.00;;;;;;;13.89;48.99;102468.81;5051727;28;20456;-76
2023/01/04 11:50:41;;;;;;;12.27;8.45;;;;;;;14.05;48.72;102473.50;5052020;28;20876;-75
2023/01/04 11:53:24;;;;;;;15.25;9.18;;;;;;;14.19;48.87;102471.31;5051628;28;20404;-76
2023/01/04 11:55:50;;;;;;;10.63;7.70;;;;;;;13.98;48.99;102461.78;5051385;28;20376;-76
2023/01/04 11:58:18;;;;;;;10.45;7.95;;;;;;;13.91;49.15;102466.84;5051191;28;20454;-77
2023/01/04 12:00:56;;;;;;;10.50;7.63;;;;;;;14.05;48.91;102457.50;5051472;28;20373;-75
2023/01/04 12:03:33;;;;;;;11.50;8.27;;;;;;;14.23;48.88;102462.88;5050447;28;20402;-76
2023/01/04 12:05:59;;;;;;;11.73;8.05;;;;;;;14.13;48.88;102475.44;5050975;28;20399;-75
2023/01/04 12:08:34;;;;;;;16.70;8.98;;;;;;;14.15;48.96;102468.97;5050712;28;20381;-76
2023/01/04 12:11:02;;;;;;;14.23;9.13;;;;;;;14.24;48.81;102466.38;5050676;28;20899;-76
2023/01/04 12:13:30;;;;;;;14.05;10.00;;;;;;;14.18;48.64;102462.47;5051762;28;20376;-76
2023/01/04 12:16:18;;;;;;;16.40;10.13;;;;;;;14.24;48.47;102459.22;5051285;28;20419;-77
2023/01/04 12:18:45;;;;;;;13.38;10.23;;;;;;;14.19;48.35;102455.31;5048541;28;20404;-75